createdAt,value
2023-02-06T00:13:59.044Z,4.45
2023-02-06T00:43:43.937Z,4.41
2023-02-06T00:58:34.965Z,4.27
2023-02-06T01:13:26.878Z,4.09
2023-02-06T01:28:19.876Z,4.08
2023-02-06T01:43:11.918Z,4.10
2023-02-06T01:58:02.588Z,4.12
2023-02-06T02:12:57.633Z,4.04
2023-02-06T02:28:11.265Z,4.00
2023-02-06T02:43:15.585Z,4.03
2023-02-06T02:58:10.235Z,3.98
2023-02-06T03:13:23.135Z,3.99
2023-02-06T03:28:23.754Z,3.95
2023-02-06T03:43:17.478Z,4.00
2023-02-06T03:58:10.436Z,4.01
2023-02-06T04:13:04.056Z,4.00
2023-02-06T04:27:58.153Z,3.98
2023-02-06T04:42:51.102Z,3.94
2023-02-06T04:57:44.426Z,3.87
2023-02-06T05:12:34.822Z,3.88
2023-02-06T05:27:26.718Z,3.86
2023-02-06T05:42:17.591Z,3.82
2023-02-06T05:57:10.649Z,3.84
2023-02-06T06:12:02.807Z,3.87
2023-02-06T06:26:53.643Z,3.76
2023-02-06T06:41:45.580Z,3.79
2023-02-06T06:56:36.636Z,3.76
2023-02-06T07:11:27.380Z,3.78
2023-02-06T07:26:18.358Z,3.77
2023-02-06T07:41:10.768Z,3.80
2023-02-06T07:56:02.259Z,3.81
2023-02-06T08:10:53.069Z,3.73
2023-02-06T08:25:47.256Z,3.78
2023-02-06T08:40:40.954Z,3.91
2023-02-06T08:55:32.039Z,4.21
2023-02-06T09:10:27.715Z,4.59
2023-02-06T09:55:20.130Z,5.10
2023-02-06T10:10:21.383Z,5.18
2023-02-06T10:25:15.768Z,5.11
2023-02-06T10:40:18.984Z,5.14
2023-02-06T10:55:20.195Z,5.12
2023-02-06T11:10:13.921Z,5.07
2023-02-06T11:25:09.043Z,5.19
2023-02-06T11:40:18.434Z,5.28
2023-02-06T11:55:29.815Z,5.30
2023-02-06T12:10:26.760Z,5.55
2023-02-06T12:25:19.750Z,5.54
2023-02-06T12:40:24.165Z,5.69
2023-02-06T12:55:31.539Z,5.85
2023-02-06T13:10:26.165Z,5.87
2023-02-06T13:25:25.373Z,6.09
2023-02-06T13:40:25.402Z,6.03
2023-02-06T13:55:29.667Z,5.91
2023-02-06T14:11:02.726Z,6.10
2023-02-06T14:26:23.421Z,5.99
2023-02-06T14:41:19.221Z,5.79
2023-02-06T14:56:17.485Z,5.76
2023-02-06T15:11:20.507Z,5.81
2023-02-06T15:26:32.870Z,5.80
2023-02-06T15:41:29.143Z,5.85
2023-02-06T15:56:26.042Z,5.81
2023-02-06T16:11:38.920Z,5.74
2023-02-06T16:26:44.084Z,5.69
2023-02-06T16:41:39.091Z,5.64
2023-02-06T16:56:29.097Z,5.60
2023-02-06T17:11:20.900Z,5.50
2023-02-06T17:26:12.886Z,5.52
2023-02-06T17:41:04.717Z,5.53
2023-02-06T17:55:57.318Z,5.41
2023-02-06T18:10:49.085Z,5.28
2023-02-06T18:25:39.301Z,5.12
2023-02-06T18:40:31.984Z,7.64
2023-02-06T18:55:22.813Z,6.81
2023-02-06T19:10:12.133Z,5.97
2023-02-06T19:25:04.470Z,5.46
2023-02-06T19:54:45.830Z,4.70
2023-02-06T20:09:36.660Z,4.43
2023-02-06T20:24:26.887Z,4.31
2023-02-06T20:54:09.468Z,4.26
2023-02-06T21:23:51.260Z,3.83
2023-02-06T21:38:43.101Z,3.81
2023-02-06T21:53:34.027Z,3.75
2023-02-06T22:08:26.676Z,3.68
2023-02-06T22:23:18.566Z,3.58
2023-02-06T22:38:10.437Z,3.54
2023-02-06T22:53:22.997Z,3.31
2023-02-06T23:08:19.430Z,3.13
2023-02-06T23:23:11.483Z,2.93
2023-02-06T23:38:01.666Z,2.83
2023-02-06T23:52:53.242Z,2.79
